createdAt,value
2023-05-03T00:01:14.649Z,100374.94
2023-05-03T00:06:38.839Z,100374.77
2023-05-03T00:12:03.176Z,100381.02
2023-05-03T00:17:27.344Z,100384.90
2023-05-03T00:22:52.620Z,100389.60
2023-05-03T00:28:17.201Z,100393.10
2023-05-03T00:33:41.256Z,100389.97
2023-05-03T00:39:05.913Z,100396.89
2023-05-03T00:44:31.208Z,100401.08
2023-05-03T00:49:56.569Z,100403.38
2023-05-03T00:55:21.108Z,100403.38
2023-05-03T01:00:45.727Z,100399.01
2023-05-03T01:06:36.307Z,100404.39
2023-05-03T01:12:12.491Z,100401.73
2023-05-03T01:17:42.406Z,100400.50
2023-05-03T01:23:15.039Z,100405.11
2023-05-03T01:28:39.179Z,100403.70
2023-05-03T01:34:29.139Z,100403.30
2023-05-03T01:40:04.533Z,100401.77
2023-05-03T01:45:30.193Z,100405.44
2023-05-03T01:50:54.284Z,100405.49
2023-05-03T01:56:18.290Z,100402.58
2023-05-03T02:01:42.550Z,100405.74
2023-05-03T02:07:07.356Z,100403.00
2023-05-03T02:12:31.614Z,100402.11
2023-05-03T02:17:56.394Z,100403.05
2023-05-03T02:23:21.231Z,100403.13
2023-05-03T02:28:45.347Z,100396.66
2023-05-03T02:34:10.837Z,100402.39
2023-05-03T02:39:37.024Z,100400.14
2023-05-03T02:45:01.560Z,100402.13
2023-05-03T02:50:26.884Z,100406.73
2023-05-03T02:55:51.572Z,100411.09
2023-05-03T03:01:16.251Z,100412.41
2023-05-03T03:06:41.591Z,100415.14
2023-05-03T03:12:06.510Z,100411.08
2023-05-03T03:17:32.445Z,100411.01
2023-05-03T03:22:58.787Z,100414.73
2023-05-03T03:28:23.803Z,100416.74
2023-05-03T03:33:49.678Z,100419.48
2023-05-03T03:39:14.968Z,100422.32
2023-05-03T03:44:40.855Z,100423.41
2023-05-03T03:50:06.776Z,100429.27
2023-05-03T03:55:31.576Z,100432.61
2023-05-03T04:00:55.943Z,100435.07
2023-05-03T04:06:21.260Z,100438.46
2023-05-03T04:11:46.733Z,100445.27
2023-05-03T04:17:11.231Z,100449.98
2023-05-03T04:22:35.294Z,100459.38
2023-05-03T04:28:00.367Z,100465.20
2023-05-03T04:33:24.829Z,100470.13
2023-05-03T04:38:50.338Z,100480.01
2023-05-03T04:44:16.315Z,100482.17
2023-05-03T04:49:41.604Z,100489.92
2023-05-03T04:55:06.959Z,100489.98
2023-05-03T05:00:31.990Z,100491.95
2023-05-03T05:06:01.016Z,100492.92
2023-05-03T05:11:26.291Z,100495.64
2023-05-03T05:16:50.730Z,100492.94
2023-05-03T05:22:15.155Z,100503.58
2023-05-03T05:27:44.140Z,100506.37
2023-05-03T05:33:08.267Z,100515.05
2023-05-03T05:38:32.619Z,100514.57
2023-05-03T05:43:59.176Z,100519.30
2023-05-03T05:49:24.289Z,100521.83
2023-05-03T05:54:49.374Z,100526.10
2023-05-03T06:00:17.785Z,100529.08
2023-05-03T06:05:42.770Z,100530.82
2023-05-03T06:11:08.096Z,100528.27
2023-05-03T06:16:32.451Z,100533.75
2023-05-03T06:21:58.319Z,100541.10
2023-05-03T06:27:25.649Z,100540.52
2023-05-03T06:33:15.121Z,100546.13
2023-05-03T06:38:42.981Z,100549.77
2023-05-03T06:44:09.904Z,100548.60
2023-05-03T06:49:34.251Z,100548.33
2023-05-03T06:54:58.801Z,100547.70
2023-05-03T07:00:23.637Z,100548.85
2023-05-03T07:05:48.377Z,100550.02
2023-05-03T07:11:13.048Z,100551.11
2023-05-03T07:16:37.329Z,100546.32
2023-05-03T07:22:03.682Z,100546.35
2023-05-03T07:27:28.281Z,100547.38
2023-05-03T07:32:53.062Z,100548.20
2023-05-03T07:38:17.831Z,100547.95
2023-05-03T07:50:44.096Z,100554.36
2023-05-03T07:56:09.006Z,100553.63
2023-05-03T08:01:33.488Z,100553.95
2023-05-03T08:07:02.483Z,100553.41
2023-05-03T08:12:27.198Z,100550.14
2023-05-03T08:17:51.603Z,100551.27
2023-05-03T08:23:19.314Z,100546.92
2023-05-03T08:28:43.097Z,100547.86
2023-05-03T08:34:10.714Z,100546.58
2023-05-03T08:39:35.358Z,100543.34
2023-05-03T08:44:59.557Z,100540.69
2023-05-03T08:50:24.879Z,100538.52
2023-05-03T08:55:48.601Z,100539.59
2023-05-03T09:01:14.858Z,100541.91
2023-05-03T09:06:40.370Z,100536.11
2023-05-03T09:12:06.460Z,100538.55
2023-05-03T09:17:30.421Z,100538.40
2023-05-03T09:22:54.578Z,100544.58
2023-05-03T09:28:20.425Z,100545.11
2023-05-03T09:33:44.701Z,100535.59
2023-05-03T09:39:17.837Z,100539.32
2023-05-03T09:44:43.589Z,100536.55
2023-05-03T09:50:08.405Z,100537.22
2023-05-03T09:55:36.955Z,100541.11
2023-05-03T10:01:01.119Z,100533.48
2023-05-03T10:06:32.292Z,100523.37
2023-05-03T10:12:00.787Z,100517.23
2023-05-03T10:17:47.167Z,100512.45
2023-05-03T10:23:14.137Z,100503.50
2023-05-03T10:28:38.240Z,100500.45
2023-05-03T10:34:20.114Z,100499.56
2023-05-03T10:39:47.719Z,100496.59
2023-05-03T10:45:25.760Z,100490.16
2023-05-03T10:50:52.216Z,100483.87
2023-05-03T10:56:16.322Z,100483.77
2023-05-03T11:01:44.853Z,100477.75
2023-05-03T11:07:10.585Z,100479.41
2023-05-03T11:12:34.680Z,100475.08
2023-05-03T11:17:59.583Z,100473.42
2023-05-03T11:23:30.855Z,100476.80
2023-05-03T11:28:55.292Z,100481.52
2023-05-03T11:34:19.803Z,100480.83
2023-05-03T11:39:43.566Z,100475.85
2023-05-03T11:45:09.783Z,100472.61
2023-05-03T11:50:48.233Z,100470.48
2023-05-03T11:56:15.705Z,100460.71
2023-05-03T12:01:39.913Z,100452.88
2023-05-03T12:07:05.684Z,100458.80
2023-05-03T12:12:32.525Z,100471.88
2023-05-03T12:18:04.506Z,100468.70
2023-05-03T12:23:29.423Z,100464.89
2023-05-03T12:28:55.953Z,100460.69
2023-05-03T12:34:33.682Z,100446.31
2023-05-03T12:40:22.493Z,100440.77
2023-05-03T12:45:46.931Z,100434.94
2023-05-03T12:56:47.743Z,100422.23
2023-05-03T13:07:43.367Z,100426.73
2023-05-03T13:13:08.054Z,100421.11
2023-05-03T13:18:32.688Z,100422.44
2023-05-03T13:23:57.757Z,100418.85
2023-05-03T13:29:22.901Z,100409.14
2023-05-03T13:34:47.506Z,100398.52
2023-05-03T13:40:12.585Z,100393.95
2023-05-03T13:45:36.783Z,100393.59
2023-05-03T13:51:00.991Z,100391.71
2023-05-03T13:56:26.422Z,100388.64
2023-05-03T14:01:51.792Z,100382.12
2023-05-03T14:07:16.741Z,100386.59
2023-05-03T14:12:40.613Z,100386.17
2023-05-03T14:18:05.836Z,100383.33
2023-05-03T14:23:30.766Z,100377.39
2023-05-03T14:28:55.073Z,100374.91
2023-05-03T14:34:20.099Z,100370.47
2023-05-03T14:39:44.682Z,100370.48
2023-05-03T14:45:11.820Z,100371.90
2023-05-03T14:50:37.299Z,100373.83
2023-05-03T14:56:02.193Z,100370.44
2023-05-03T15:01:26.661Z,100375.70
2023-05-03T15:06:51.072Z,100380.53
2023-05-03T15:12:15.561Z,100377.34
2023-05-03T15:17:39.801Z,100385.90
2023-05-03T15:23:05.115Z,100380.94
2023-05-03T15:28:29.486Z,100378.44
2023-05-03T15:33:54.461Z,100384.95
2023-05-03T15:39:19.000Z,100384.61
2023-05-03T15:44:43.042Z,100385.23
2023-05-03T15:50:08.194Z,100386.71
2023-05-03T15:55:32.588Z,100384.25
2023-05-03T16:00:57.462Z,100378.75
2023-05-03T16:06:22.763Z,100379.66
2023-05-03T16:11:48.120Z,100376.16
2023-05-03T16:17:12.792Z,100372.63
2023-05-03T16:22:39.725Z,100370.48
2023-05-03T16:28:03.590Z,100372.29
2023-05-03T16:33:27.977Z,100367.33
2023-05-03T16:38:52.242Z,100364.46
2023-05-03T16:44:18.868Z,100360.29
2023-05-03T16:49:43.455Z,100355.67
2023-05-03T16:55:09.387Z,100348.20
2023-05-03T17:00:33.934Z,100345.19
2023-05-03T17:05:57.809Z,100343.52
2023-05-03T17:11:22.683Z,100350.48
2023-05-03T17:16:49.212Z,100350.29
2023-05-03T17:22:13.960Z,100352.34
2023-05-03T17:27:37.820Z,100353.77
2023-05-03T17:33:02.126Z,100353.00
2023-05-03T17:38:25.906Z,100352.00
2023-05-03T17:43:51.440Z,100353.81
2023-05-03T17:49:16.600Z,100357.67
2023-05-03T17:54:42.254Z,100360.52
2023-05-03T18:00:07.183Z,100364.95
2023-05-03T18:05:37.158Z,100365.78
2023-05-03T18:11:01.853Z,100368.60
2023-05-03T18:16:26.446Z,100378.88
2023-05-03T18:21:51.763Z,100379.34
2023-05-03T18:27:16.328Z,100384.10
2023-05-03T18:32:40.375Z,100390.09
2023-05-03T18:38:04.746Z,100393.73
2023-05-03T18:43:29.051Z,100393.09
2023-05-03T18:48:54.912Z,100394.66
2023-05-03T18:54:21.484Z,100402.88
2023-05-03T18:59:59.386Z,100403.62
2023-05-03T19:05:24.531Z,100402.95
2023-05-03T19:10:49.283Z,100407.52
2023-05-03T19:16:15.932Z,100417.30
2023-05-03T19:21:42.719Z,100422.23
2023-05-03T19:27:07.051Z,100422.48
2023-05-03T19:32:35.753Z,100425.14
2023-05-03T19:37:59.397Z,100428.21
2023-05-03T19:43:24.032Z,100427.19
2023-05-03T19:48:48.427Z,100431.59
2023-05-03T19:54:13.228Z,100422.02
2023-05-03T19:59:38.229Z,100422.45
2023-05-03T20:05:02.659Z,100426.61
2023-05-03T20:10:27.670Z,100427.77
2023-05-03T20:15:51.642Z,100421.50
2023-05-03T20:21:15.782Z,100420.38
2023-05-03T20:26:41.518Z,100426.39
2023-05-03T20:32:08.395Z,100429.18
2023-05-03T20:37:33.600Z,100426.92
2023-05-03T20:42:57.980Z,100429.05
2023-05-03T20:48:21.933Z,100430.02
2023-05-03T20:53:46.009Z,100428.94
2023-05-03T20:59:10.480Z,100427.02
2023-05-03T21:04:35.314Z,100428.12
2023-05-03T21:10:00.224Z,100431.30
2023-05-03T21:15:24.031Z,100430.66
2023-05-03T21:20:48.215Z,100432.68
2023-05-03T21:26:12.417Z,100431.91
2023-05-03T21:31:37.911Z,100430.16
2023-05-03T21:37:02.300Z,100427.05
2023-05-03T21:42:26.800Z,100426.79
2023-05-03T21:47:51.384Z,100427.88
2023-05-03T21:53:15.757Z,100424.22
2023-05-03T21:58:40.306Z,100419.50
2023-05-03T22:04:05.617Z,100412.80
2023-05-03T22:09:30.908Z,100408.23
2023-05-03T22:14:55.635Z,100414.95
2023-05-03T22:20:19.803Z,100414.55
2023-05-03T22:25:43.698Z,100415.55
2023-05-03T22:31:07.709Z,100414.70
2023-05-03T22:36:31.495Z,100407.48
2023-05-03T22:41:56.030Z,100408.85
2023-05-03T22:47:21.785Z,100404.72
2023-05-03T22:52:46.060Z,100405.78
2023-05-03T22:58:10.426Z,100409.38
2023-05-03T23:03:34.353Z,100405.05
2023-05-03T23:08:58.821Z,100399.83
2023-05-03T23:14:23.902Z,100398.23
2023-05-03T23:19:48.496Z,100402.63
2023-05-03T23:25:12.478Z,100397.54
2023-05-03T23:30:36.823Z,100393.48
2023-05-03T23:36:01.511Z,100392.61
2023-05-03T23:41:26.374Z,100386.99
2023-05-03T23:46:50.491Z,100383.36
2023-05-03T23:52:17.369Z,100378.61
2023-05-03T23:57:41.296Z,100379.68
